sensor_id;sensor_type;location;lat;lon;timestamp;temperature;humidity
23685;DHT22;12020;51.384;6.908;2023-06-14T00:00:47;18.40;94.60
23685;DHT22;12020;51.384;6.908;2023-06-14T00:03:14;18.40;94.20
23685;DHT22;12020;51.384;6.908;2023-06-14T00:05:46;18.50;94.40
23685;DHT22;12020;51.384;6.908;2023-06-14T00:08:14;18.50;94.50
23685;DHT22;12020;51.384;6.908;2023-06-14T00:10:41;18.50;94.80
23685;DHT22;12020;51.384;6.908;2023-06-14T00:13:19;18.40;95.20
23685;DHT22;12020;51.384;6.908;2023-06-14T00:15:47;18.30;95.30
23685;DHT22;12020;51.384;6.908;2023-06-14T00:18:24;18.30;95.40
23685;DHT22;12020;51.384;6.908;2023-06-14T00:20:58;18.30;94.80
23685;DHT22;12020;51.384;6.908;2023-06-14T00:23:36;18.30;95.00
23685;DHT22;12020;51.384;6.908;2023-06-14T00:26:05;18.30;95.20
23685;DHT22;12020;51.384;6.908;2023-06-14T00:28:31;18.40;95.30
23685;DHT22;12020;51.384;6.908;2023-06-14T00:31:03;18.30;95.30
23685;DHT22;12020;51.384;6.908;2023-06-14T00:33:31;18.30;95.30
23685;DHT22;12020;51.384;6.908;2023-06-14T00:35:58;18.30;94.60
23685;DHT22;12020;51.384;6.908;2023-06-14T00:38:25;18.30;94.60
23685;DHT22;12020;51.384;6.908;2023-06-14T00:41:04;18.40;93.90
23685;DHT22;12020;51.384;6.908;2023-06-14T00:43:33;18.40;93.70
23685;DHT22;12020;51.384;6.908;2023-06-14T00:46:02;18.50;93.50
23685;DHT22;12020;51.384;6.908;2023-06-14T00:48:40;18.50;93.50
23685;DHT22;12020;51.384;6.908;2023-06-14T00:51:11;18.50;93.40
23685;DHT22;12020;51.384;6.908;2023-06-14T00:53:40;18.50;93.20
23685;DHT22;12020;51.384;6.908;2023-06-14T00:56:22;18.60;93.20
23685;DHT22;12020;51.384;6.908;2023-06-14T00:58:58;18.60;93.20
23685;DHT22;12020;51.384;6.908;2023-06-14T01:01:27;18.60;93.10
23685;DHT22;12020;51.384;6.908;2023-06-14T01:03:59;18.60;93.10
23685;DHT22;12020;51.384;6.908;2023-06-14T01:15:27;18.60;93.40
23685;DHT22;12020;51.384;6.908;2023-06-14T01:17:55;18.60;93.40
23685;DHT22;12020;51.384;6.908;2023-06-14T01:20:29;18.60;93.50
23685;DHT22;12020;51.384;6.908;2023-06-14T01:23:06;18.50;93.70
23685;DHT22;12020;51.384;6.908;2023-06-14T01:25:48;18.40;94.00
23685;DHT22;12020;51.384;6.908;2023-06-14T01:28:20;18.40;94.60
23685;DHT22;12020;51.384;6.908;2023-06-14T01:30:53;18.30;95.10
23685;DHT22;12020;51.384;6.908;2023-06-14T01:33:30;18.20;95.20
23685;DHT22;12020;51.384;6.908;2023-06-14T01:36:02;18.20;95.30
23685;DHT22;12020;51.384;6.908;2023-06-14T01:38:30;18.10;95.90
23685;DHT22;12020;51.384;6.908;2023-06-14T01:40:59;18.00;95.80
23685;DHT22;12020;51.384;6.908;2023-06-14T01:43:31;18.00;95.90
23685;DHT22;12020;51.384;6.908;2023-06-14T01:46:09;17.90;96.10
23685;DHT22;12020;51.384;6.908;2023-06-14T01:48:40;17.80;96.30
23685;DHT22;12020;51.384;6.908;2023-06-14T01:51:10;17.70;96.50
23685;DHT22;12020;51.384;6.908;2023-06-14T01:53:37;17.60;96.90
23685;DHT22;12020;51.384;6.908;2023-06-14T01:56:15;17.60;96.70
23685;DHT22;12020;51.384;6.908;2023-06-14T01:58:43;17.50;97.10
23685;DHT22;12020;51.384;6.908;2023-06-14T02:01:11;17.40;97.40
23685;DHT22;12020;51.384;6.908;2023-06-14T03:08:19;16.30;99.90
23685;DHT22;12020;51.384;6.908;2023-06-14T03:10:58;16.30;99.90
23685;DHT22;12020;51.384;6.908;2023-06-14T03:13:37;16.20;99.90
23685;DHT22;12020;51.384;6.908;2023-06-14T03:16:19;16.20;99.90
23685;DHT22;12020;51.384;6.908;2023-06-14T03:19:05;16.20;99.90
23685;DHT22;12020;51.384;6.908;2023-06-14T03:21:35;16.20;99.90
23685;DHT22;12020;51.384;6.908;2023-06-14T03:24:11;16.10;99.90
23685;DHT22;12020;51.384;6.908;2023-06-14T03:26:40;16.10;99.90
23685;DHT22;12020;51.384;6.908;2023-06-14T03:29:27;16.00;99.90
23685;DHT22;12020;51.384;6.908;2023-06-14T03:32:01;16.00;99.90
23685;DHT22;12020;51.384;6.908;2023-06-14T03:34:27;16.00;99.90
23685;DHT22;12020;51.384;6.908;2023-06-14T03:36:59;15.90;99.90
23685;DHT22;12020;51.384;6.908;2023-06-14T03:39:25;15.90;99.90
23685;DHT22;12020;51.384;6.908;2023-06-14T03:41:56;15.90;99.90
23685;DHT22;12020;51.384;6.908;2023-06-14T03:44:31;15.90;99.90
23685;DHT22;12020;51.384;6.908;2023-06-14T03:47:00;15.80;99.90
23685;DHT22;12020;51.384;6.908;2023-06-14T03:49:29;15.80;99.90
23685;DHT22;12020;51.384;6.908;2023-06-14T03:52:02;15.80;99.90
23685;DHT22;12020;51.384;6.908;2023-06-14T03:54:30;15.80;99.90
23685;DHT22;12020;51.384;6.908;2023-06-14T03:56:59;15.70;99.90
23685;DHT22;12020;51.384;6.908;2023-06-14T03:59:29;15.70;99.90
23685;DHT22;12020;51.384;6.908;2023-06-14T04:01:56;15.70;99.90
23685;DHT22;12020;51.384;6.908;2023-06-14T04:04:27;15.80;99.90
23685;DHT22;12020;51.384;6.908;2023-06-14T04:06:56;15.70;99.90
23685;DHT22;12020;51.384;6.908;2023-06-14T04:09:32;15.70;99.90
23685;DHT22;12020;51.384;6.908;2023-06-14T04:11:59;15.70;99.90
23685;DHT22;12020;51.384;6.908;2023-06-14T04:14:26;15.70;99.90
23685;DHT22;12020;51.384;6.908;2023-06-14T04:17:06;15.70;99.90
23685;DHT22;12020;51.384;6.908;2023-06-14T04:19:32;15.80;99.90
23685;DHT22;12020;51.384;6.908;2023-06-14T04:22:05;15.70;99.90
23685;DHT22;12020;51.384;6.908;2023-06-14T04:24:31;15.80;99.90
23685;DHT22;12020;51.384;6.908;2023-06-14T04:26:59;15.80;99.90
23685;DHT22;12020;51.384;6.908;2023-06-14T04:29:28;15.90;99.90
23685;DHT22;12020;51.384;6.908;2023-06-14T04:31:55;15.90;99.90
23685;DHT22;12020;51.384;6.908;2023-06-14T04:34:28;15.90;99.90
23685;DHT22;12020;51.384;6.908;2023-06-14T04:39:41;16.00;99.90
23685;DHT22;12020;51.384;6.908;2023-06-14T04:42:12;16.10;99.90
23685;DHT22;12020;51.384;6.908;2023-06-14T04:44:46;16.10;99.90
23685;DHT22;12020;51.384;6.908;2023-06-14T04:47:15;16.20;99.90
23685;DHT22;12020;51.384;6.908;2023-06-14T04:50:01;16.30;99.90
23685;DHT22;12020;51.384;6.908;2023-06-14T04:52:32;16.30;99.90
23685;DHT22;12020;51.384;6.908;2023-06-14T04:55:01;16.30;99.90
23685;DHT22;12020;51.384;6.908;2023-06-14T04:57:31;16.40;99.90
23685;DHT22;12020;51.384;6.908;2023-06-14T04:59:57;16.40;99.90
23685;DHT22;12020;51.384;6.908;2023-06-14T05:02:24;16.50;99.90
23685;DHT22;12020;51.384;6.908;2023-06-14T05:04:58;16.50;99.90
23685;DHT22;12020;51.384;6.908;2023-06-14T05:07:27;16.50;99.90
23685;DHT22;12020;51.384;6.908;2023-06-14T05:09:56;16.60;99.90
23685;DHT22;12020;51.384;6.908;2023-06-14T05:12:24;16.60;99.90
23685;DHT22;12020;51.384;6.908;2023-06-14T05:15:14;16.60;99.90
23685;DHT22;12020;51.384;6.908;2023-06-14T05:17:46;16.70;99.90
23685;DHT22;12020;51.384;6.908;2023-06-14T05:20:46;16.70;99.90
23685;DHT22;12020;51.384;6.908;2023-06-14T05:23:39;16.80;99.90
23685;DHT22;12020;51.384;6.908;2023-06-14T05:44:12;17.10;99.90
23685;DHT22;12020;51.384;6.908;2023-06-14T05:46:40;17.20;99.90
23685;DHT22;12020;51.384;6.908;2023-06-14T05:49:10;17.30;99.90
23685;DHT22;12020;51.384;6.908;2023-06-14T05:51:42;17.30;99.90
23685;DHT22;12020;51.384;6.908;2023-06-14T05:54:09;17.40;99.90
23685;DHT22;12020;51.384;6.908;2023-06-14T05:56:44;17.40;99.90
23685;DHT22;12020;51.384;6.908;2023-06-14T05:59:29;17.50;99.90
23685;DHT22;12020;51.384;6.908;2023-06-14T06:07:08;17.70;99.90
23685;DHT22;12020;51.384;6.908;2023-06-14T06:09:35;17.70;99.90
23685;DHT22;12020;51.384;6.908;2023-06-14T06:12:06;17.80;99.90
23685;DHT22;12020;51.384;6.908;2023-06-14T06:14:33;17.90;99.90
23685;DHT22;12020;51.384;6.908;2023-06-14T06:16:59;17.90;99.90
23685;DHT22;12020;51.384;6.908;2023-06-14T06:19:25;18.00;99.90
23685;DHT22;12020;51.384;6.908;2023-06-14T06:21:52;18.10;99.90
23685;DHT22;12020;51.384;6.908;2023-06-14T06:24:18;18.10;99.90
23685;DHT22;12020;51.384;6.908;2023-06-14T06:26:43;18.20;99.90
23685;DHT22;12020;51.384;6.908;2023-06-14T06:29:11;18.20;99.90
23685;DHT22;12020;51.384;6.908;2023-06-14T06:31:38;18.30;99.90
23685;DHT22;12020;51.384;6.908;2023-06-14T06:34:10;18.30;99.90
23685;DHT22;12020;51.384;6.908;2023-06-14T06:36:44;18.40;99.90
23685;DHT22;12020;51.384;6.908;2023-06-14T06:39:11;18.40;99.90
23685;DHT22;12020;51.384;6.908;2023-06-14T06:41:43;18.40;99.90
23685;DHT22;12020;51.384;6.908;2023-06-14T06:44:20;18.50;99.90
23685;DHT22;12020;51.384;6.908;2023-06-14T06:46:46;18.50;99.90
23685;DHT22;12020;51.384;6.908;2023-06-14T06:49:12;18.60;99.90
23685;DHT22;12020;51.384;6.908;2023-06-14T06:51:43;18.60;99.90
23685;DHT22;12020;51.384;6.908;2023-06-14T06:54:12;18.70;99.90
23685;DHT22;12020;51.384;6.908;2023-06-14T06:56:48;18.70;99.90
23685;DHT22;12020;51.384;6.908;2023-06-14T06:59:14;18.70;99.90
23685;DHT22;12020;51.384;6.908;2023-06-14T07:01:47;18.80;99.90
23685;DHT22;12020;51.384;6.908;2023-06-14T07:04:18;18.80;99.90
23685;DHT22;12020;51.384;6.908;2023-06-14T07:06:46;18.90;99.90
23685;DHT22;12020;51.384;6.908;2023-06-14T07:09:12;19.00;99.90
23685;DHT22;12020;51.384;6.908;2023-06-14T07:11:46;19.10;99.90
23685;DHT22;12020;51.384;6.908;2023-06-14T07:14:15;19.10;99.90
23685;DHT22;12020;51.384;6.908;2023-06-14T07:16:40;19.30;99.90
23685;DHT22;12020;51.384;6.908;2023-06-14T07:19:07;19.30;99.90
23685;DHT22;12020;51.384;6.908;2023-06-14T07:21:38;19.50;99.90
23685;DHT22;12020;51.384;6.908;2023-06-14T07:24:05;19.60;99.70
23685;DHT22;12020;51.384;6.908;2023-06-14T07:29:01;19.80;98.50
23685;DHT22;12020;51.384;6.908;2023-06-14T07:31:28;19.80;98.50
23685;DHT22;12020;51.384;6.908;2023-06-14T07:33:53;19.90;98.30
23685;DHT22;12020;51.384;6.908;2023-06-14T07:36:20;20.00;98.00
23685;DHT22;12020;51.384;6.908;2023-06-14T07:38:45;20.10;98.00
23685;DHT22;12020;51.384;6.908;2023-06-14T07:41:11;20.30;98.10
23685;DHT22;12020;51.384;6.908;2023-06-14T07:43:36;20.30;97.60
23685;DHT22;12020;51.384;6.908;2023-06-14T07:46:02;20.50;96.90
23685;DHT22;12020;51.384;6.908;2023-06-14T07:48:29;20.60;96.80
23685;DHT22;12020;51.384;6.908;2023-06-14T07:50:55;20.80;96.20
23685;DHT22;12020;51.384;6.908;2023-06-14T07:53:21;20.90;96.50
23685;DHT22;12020;51.384;6.908;2023-06-14T07:55:46;21.10;96.60
23685;DHT22;12020;51.384;6.908;2023-06-14T07:58:13;21.40;96.70
23685;DHT22;12020;51.384;6.908;2023-06-14T08:00:39;21.60;95.30
23685;DHT22;12020;51.384;6.908;2023-06-14T08:03:05;21.80;95.10
23685;DHT22;12020;51.384;6.908;2023-06-14T08:05:32;22.00;94.60
23685;DHT22;12020;51.384;6.908;2023-06-14T08:07:59;22.20;94.50
23685;DHT22;12020;51.384;6.908;2023-06-14T08:10:25;22.50;94.50
23685;DHT22;12020;51.384;6.908;2023-06-14T08:12:51;22.70;93.50
23685;DHT22;12020;51.384;6.908;2023-06-14T08:15:17;22.90;92.90
23685;DHT22;12020;51.384;6.908;2023-06-14T08:17:44;23.30;92.60
23685;DHT22;12020;51.384;6.908;2023-06-14T08:20:10;23.30;91.50
23685;DHT22;12020;51.384;6.908;2023-06-14T08:22:36;23.40;91.10
23685;DHT22;12020;51.384;6.908;2023-06-14T08:25:03;23.60;91.60
23685;DHT22;12020;51.384;6.908;2023-06-14T08:27:29;23.80;90.80
23685;DHT22;12020;51.384;6.908;2023-06-14T08:29:55;24.10;90.00
23685;DHT22;12020;51.384;6.908;2023-06-14T08:32:24;24.20;87.30
23685;DHT22;12020;51.384;6.908;2023-06-14T08:34:51;24.20;86.60
23685;DHT22;12020;51.384;6.908;2023-06-14T08:37:17;24.20;85.30
23685;DHT22;12020;51.384;6.908;2023-06-14T08:39:44;24.20;84.80
23685;DHT22;12020;51.384;6.908;2023-06-14T08:42:10;24.20;85.10
23685;DHT22;12020;51.384;6.908;2023-06-14T08:44:37;24.20;84.50
23685;DHT22;12020;51.384;6.908;2023-06-14T08:47:03;24.30;84.90
23685;DHT22;12020;51.384;6.908;2023-06-14T08:49:32;24.40;84.30
23685;DHT22;12020;51.384;6.908;2023-06-14T08:52:00;24.50;83.30
23685;DHT22;12020;51.384;6.908;2023-06-14T08:54:30;24.50;80.30
23685;DHT22;12020;51.384;6.908;2023-06-14T08:57:02;24.50;81.80
23685;DHT22;12020;51.384;6.908;2023-06-14T08:59:30;24.50;80.50
23685;DHT22;12020;51.384;6.908;2023-06-14T09:02:00;24.60;81.30
23685;DHT22;12020;51.384;6.908;2023-06-14T09:04:27;24.70;81.80
23685;DHT22;12020;51.384;6.908;2023-06-14T09:06:55;24.70;82.10
23685;DHT22;12020;51.384;6.908;2023-06-14T09:09:21;24.90;82.00
23685;DHT22;12020;51.384;6.908;2023-06-14T09:11:49;25.10;81.80
23685;DHT22;12020;51.384;6.908;2023-06-14T09:14:16;25.20;80.70
23685;DHT22;12020;51.384;6.908;2023-06-14T09:16:42;25.30;78.90
23685;DHT22;12020;51.384;6.908;2023-06-14T09:19:08;25.20;78.50
23685;DHT22;12020;51.384;6.908;2023-06-14T09:21:42;25.10;77.80
23685;DHT22;12020;51.384;6.908;2023-06-14T09:24:13;25.10;78.10
23685;DHT22;12020;51.384;6.908;2023-06-14T09:26:41;25.30;77.80
23685;DHT22;12020;51.384;6.908;2023-06-14T09:29:07;25.30;77.20
23685;DHT22;12020;51.384;6.908;2023-06-14T09:31:35;25.40;77.40
23685;DHT22;12020;51.384;6.908;2023-06-14T09:34:03;25.50;77.60
23685;DHT22;12020;51.384;6.908;2023-06-14T09:36:31;25.60;77.00
23685;DHT22;12020;51.384;6.908;2023-06-14T09:38:58;25.80;75.80
23685;DHT22;12020;51.384;6.908;2023-06-14T09:41:35;25.90;74.90
23685;DHT22;12020;51.384;6.908;2023-06-14T09:44:03;25.90;76.60
23685;DHT22;12020;51.384;6.908;2023-06-14T09:46:29;25.80;73.80
23685;DHT22;12020;51.384;6.908;2023-06-14T09:48:59;25.90;75.20
23685;DHT22;12020;51.384;6.908;2023-06-14T09:51:26;25.90;74.90
23685;DHT22;12020;51.384;6.908;2023-06-14T09:53:52;25.90;74.70
23685;DHT22;12020;51.384;6.908;2023-06-14T09:56:28;26.00;75.30
23685;DHT22;12020;51.384;6.908;2023-06-14T09:58:58;26.10;76.00
23685;DHT22;12020;51.384;6.908;2023-06-14T10:01:25;26.20;75.00
23685;DHT22;12020;51.384;6.908;2023-06-14T10:03:55;26.20;72.00
23685;DHT22;12020;51.384;6.908;2023-06-14T10:06:25;26.10;71.50
23685;DHT22;12020;51.384;6.908;2023-06-14T10:08:57;26.10;73.00
23685;DHT22;12020;51.384;6.908;2023-06-14T10:11:28;26.10;72.70
23685;DHT22;12020;51.384;6.908;2023-06-14T10:13:58;26.00;72.50
23685;DHT22;12020;51.384;6.908;2023-06-14T10:16:37;26.00;71.30
23685;DHT22;12020;51.384;6.908;2023-06-14T10:19:11;26.00;72.00
23685;DHT22;12020;51.384;6.908;2023-06-14T10:24:16;25.80;73.00
23685;DHT22;12020;51.384;6.908;2023-06-14T10:26:56;25.80;73.60
23685;DHT22;12020;51.384;6.908;2023-06-14T10:29:22;25.90;73.60
23685;DHT22;12020;51.384;6.908;2023-06-14T10:31:49;25.90;72.70
23685;DHT22;12020;51.384;6.908;2023-06-14T10:34:26;25.90;73.20
23685;DHT22;12020;51.384;6.908;2023-06-14T10:37:13;25.90;72.80
23685;DHT22;12020;51.384;6.908;2023-06-14T10:39:43;25.80;72.50
23685;DHT22;12020;51.384;6.908;2023-06-14T10:42:11;25.80;74.60
23685;DHT22;12020;51.384;6.908;2023-06-14T10:44:51;25.80;72.80
23685;DHT22;12020;51.384;6.908;2023-06-14T10:47:25;25.90;72.90
23685;DHT22;12020;51.384;6.908;2023-06-14T10:49:55;26.00;73.60
23685;DHT22;12020;51.384;6.908;2023-06-14T10:52:27;26.10;72.20
23685;DHT22;12020;51.384;6.908;2023-06-14T10:55:12;25.90;72.70
23685;DHT22;12020;51.384;6.908;2023-06-14T10:57:53;25.90;73.00
23685;DHT22;12020;51.384;6.908;2023-06-14T11:00:25;25.80;74.10
23685;DHT22;12020;51.384;6.908;2023-06-14T11:05:24;25.70;74.60
23685;DHT22;12020;51.384;6.908;2023-06-14T11:08:24;25.70;76.00
23685;DHT22;12020;51.384;6.908;2023-06-14T11:10:54;25.80;75.40
23685;DHT22;12020;51.384;6.908;2023-06-14T11:13:25;25.90;75.20
23685;DHT22;12020;51.384;6.908;2023-06-14T11:15:51;25.80;74.90
23685;DHT22;12020;51.384;6.908;2023-06-14T11:18:19;25.80;74.10
23685;DHT22;12020;51.384;6.908;2023-06-14T11:20:49;25.80;76.10
23685;DHT22;12020;51.384;6.908;2023-06-14T11:23:16;25.70;75.10
23685;DHT22;12020;51.384;6.908;2023-06-14T11:25:42;25.80;75.00
23685;DHT22;12020;51.384;6.908;2023-06-14T11:28:08;25.80;74.80
23685;DHT22;12020;51.384;6.908;2023-06-14T11:30:33;25.70;75.60
23685;DHT22;12020;51.384;6.908;2023-06-14T11:32:59;25.60;78.30
23685;DHT22;12020;51.384;6.908;2023-06-14T11:35:26;25.60;75.80
23685;DHT22;12020;51.384;6.908;2023-06-14T11:37:55;25.50;76.60
23685;DHT22;12020;51.384;6.908;2023-06-14T11:40:25;25.60;75.90
23685;DHT22;12020;51.384;6.908;2023-06-14T11:42:58;25.70;77.60
23685;DHT22;12020;51.384;6.908;2023-06-14T11:45:25;25.80;77.80
23685;DHT22;12020;51.384;6.908;2023-06-14T11:47:50;25.80;77.20
23685;DHT22;12020;51.384;6.908;2023-06-14T11:50:16;25.70;76.60
23685;DHT22;12020;51.384;6.908;2023-06-14T11:52:42;25.70;77.40
23685;DHT22;12020;51.384;6.908;2023-06-14T11:55:08;25.60;76.90
23685;DHT22;12020;51.384;6.908;2023-06-14T11:57:34;25.50;76.50
23685;DHT22;12020;51.384;6.908;2023-06-14T12:00:03;25.40;77.60
23685;DHT22;12020;51.384;6.908;2023-06-14T12:02:33;25.50;77.00
23685;DHT22;12020;51.384;6.908;2023-06-14T12:05:05;25.50;77.60
23685;DHT22;12020;51.384;6.908;2023-06-14T12:07:33;25.60;79.30
23685;DHT22;12020;51.384;6.908;2023-06-14T12:12:25;25.70;77.40
23685;DHT22;12020;51.384;6.908;2023-06-14T12:14:51;25.70;77.30
23685;DHT22;12020;51.384;6.908;2023-06-14T12:17:18;25.60;78.10
23685;DHT22;12020;51.384;6.908;2023-06-14T12:19:45;25.50;77.60
23685;DHT22;12020;51.384;6.908;2023-06-14T12:22:12;25.40;77.40
23685;DHT22;12020;51.384;6.908;2023-06-14T12:24:38;25.40;77.60
23685;DHT22;12020;51.384;6.908;2023-06-14T12:27:05;25.50;77.60
23685;DHT22;12020;51.384;6.908;2023-06-14T12:29:31;25.50;77.30
23685;DHT22;12020;51.384;6.908;2023-06-14T12:31:57;25.50;79.00
23685;DHT22;12020;51.384;6.908;2023-06-14T12:34:24;25.50;78.20
23685;DHT22;12020;51.384;6.908;2023-06-14T12:36:50;25.50;77.90
23685;DHT22;12020;51.384;6.908;2023-06-14T12:39:16;25.40;77.80
23685;DHT22;12020;51.384;6.908;2023-06-14T12:41:42;25.40;76.80
23685;DHT22;12020;51.384;6.908;2023-06-14T12:44:08;25.40;76.40
23685;DHT22;12020;51.384;6.908;2023-06-14T12:46:35;25.40;78.10
23685;DHT22;12020;51.384;6.908;2023-06-14T12:49:01;25.40;78.20
23685;DHT22;12020;51.384;6.908;2023-06-14T12:51:28;25.40;77.00
23685;DHT22;12020;51.384;6.908;2023-06-14T12:53:54;25.40;77.10
23685;DHT22;12020;51.384;6.908;2023-06-14T12:56:19;25.30;77.80
23685;DHT22;12020;51.384;6.908;2023-06-14T12:58:45;25.30;77.70
23685;DHT22;12020;51.384;6.908;2023-06-14T13:01:11;25.30;77.20
23685;DHT22;12020;51.384;6.908;2023-06-14T13:03:36;25.40;76.60
23685;DHT22;12020;51.384;6.908;2023-06-14T13:06:03;25.50;77.60
23685;DHT22;12020;51.384;6.908;2023-06-14T13:08:29;25.60;79.80
23685;DHT22;12020;51.384;6.908;2023-06-14T13:10:56;25.60;79.80
23685;DHT22;12020;51.384;6.908;2023-06-14T13:13:23;25.60;76.70
23685;DHT22;12020;51.384;6.908;2023-06-14T13:15:53;25.50;77.20
23685;DHT22;12020;51.384;6.908;2023-06-14T13:18:19;25.50;78.50
23685;DHT22;12020;51.384;6.908;2023-06-14T13:20:46;25.50;77.70
23685;DHT22;12020;51.384;6.908;2023-06-14T13:23:16;25.50;77.30
23685;DHT22;12020;51.384;6.908;2023-06-14T13:25:43;25.40;77.90
23685;DHT22;12020;51.384;6.908;2023-06-14T13:28:09;25.30;79.90
23685;DHT22;12020;51.384;6.908;2023-06-14T13:30:35;25.30;79.10
23685;DHT22;12020;51.384;6.908;2023-06-14T13:33:01;25.40;80.30
23685;DHT22;12020;51.384;6.908;2023-06-14T13:35:26;25.50;80.60
23685;DHT22;12020;51.384;6.908;2023-06-14T13:37:52;25.60;78.70
23685;DHT22;12020;51.384;6.908;2023-06-14T13:40:18;25.60;78.30
23685;DHT22;12020;51.384;6.908;2023-06-14T13:42:44;25.50;78.80
23685;DHT22;12020;51.384;6.908;2023-06-14T13:45:11;25.50;79.20
23685;DHT22;12020;51.384;6.908;2023-06-14T13:47:37;25.50;79.00
23685;DHT22;12020;51.384;6.908;2023-06-14T13:50:04;25.50;78.10
23685;DHT22;12020;51.384;6.908;2023-06-14T13:52:30;25.50;78.80
23685;DHT22;12020;51.384;6.908;2023-06-14T13:54:55;25.50;79.70
23685;DHT22;12020;51.384;6.908;2023-06-14T13:57:21;25.40;78.60
23685;DHT22;12020;51.384;6.908;2023-06-14T13:59:47;25.40;75.70
23685;DHT22;12020;51.384;6.908;2023-06-14T14:02:12;25.40;78.20
23685;DHT22;12020;51.384;6.908;2023-06-14T14:04:39;25.40;77.50
23685;DHT22;12020;51.384;6.908;2023-06-14T14:07:05;25.30;76.00
23685;DHT22;12020;51.384;6.908;2023-06-14T14:09:31;25.20;76.60
23685;DHT22;12020;51.384;6.908;2023-06-14T14:11:58;25.20;77.50
23685;DHT22;12020;51.384;6.908;2023-06-14T14:14:24;25.20;77.30
23685;DHT22;12020;51.384;6.908;2023-06-14T14:16:50;25.30;77.60
23685;DHT22;12020;51.384;6.908;2023-06-14T14:19:17;25.30;77.80
23685;DHT22;12020;51.384;6.908;2023-06-14T14:21:44;25.30;78.00
23685;DHT22;12020;51.384;6.908;2023-06-14T14:24:10;25.30;76.20
23685;DHT22;12020;51.384;6.908;2023-06-14T14:26:37;25.30;76.40
23685;DHT22;12020;51.384;6.908;2023-06-14T14:29:03;25.30;76.90
23685;DHT22;12020;51.384;6.908;2023-06-14T14:31:28;25.20;77.80
23685;DHT22;12020;51.384;6.908;2023-06-14T14:33:54;25.20;77.70
23685;DHT22;12020;51.384;6.908;2023-06-14T14:36:20;25.10;77.10
23685;DHT22;12020;51.384;6.908;2023-06-14T14:38:45;25.10;77.00
23685;DHT22;12020;51.384;6.908;2023-06-14T14:41:12;25.00;78.30
23685;DHT22;12020;51.384;6.908;2023-06-14T14:43:38;25.00;78.30
23685;DHT22;12020;51.384;6.908;2023-06-14T14:46:04;25.00;78.80
23685;DHT22;12020;51.384;6.908;2023-06-14T14:48:30;25.00;77.70
23685;DHT22;12020;51.384;6.908;2023-06-14T14:50:55;25.00;78.90
23685;DHT22;12020;51.384;6.908;2023-06-14T14:53:21;25.00;78.10
23685;DHT22;12020;51.384;6.908;2023-06-14T14:55:47;25.00;78.00
23685;DHT22;12020;51.384;6.908;2023-06-14T14:58:13;24.80;77.60
23685;DHT22;12020;51.384;6.908;2023-06-14T15:00:42;24.80;79.20
23685;DHT22;12020;51.384;6.908;2023-06-14T15:03:08;24.80;78.20
23685;DHT22;12020;51.384;6.908;2023-06-14T15:05:33;24.80;77.30
23685;DHT22;12020;51.384;6.908;2023-06-14T15:07:59;24.80;77.80
23685;DHT22;12020;51.384;6.908;2023-06-14T15:10:25;24.80;78.60
23685;DHT22;12020;51.384;6.908;2023-06-14T15:12:50;24.80;77.70
23685;DHT22;12020;51.384;6.908;2023-06-14T15:15:16;24.80;78.00
23685;DHT22;12020;51.384;6.908;2023-06-14T15:17:43;24.70;77.50
23685;DHT22;12020;51.384;6.908;2023-06-14T15:20:10;24.70;78.40
23685;DHT22;12020;51.384;6.908;2023-06-14T15:22:35;24.70;78.50
23685;DHT22;12020;51.384;6.908;2023-06-14T15:25:01;24.80;77.80
23685;DHT22;12020;51.384;6.908;2023-06-14T15:27:27;24.70;78.40
23685;DHT22;12020;51.384;6.908;2023-06-14T15:29:53;24.70;79.30
23685;DHT22;12020;51.384;6.908;2023-06-14T15:32:18;24.80;78.90
23685;DHT22;12020;51.384;6.908;2023-06-14T15:34:44;24.80;78.90
23685;DHT22;12020;51.384;6.908;2023-06-14T15:37:11;24.80;78.70
23685;DHT22;12020;51.384;6.908;2023-06-14T15:39:36;24.80;79.50
23685;DHT22;12020;51.384;6.908;2023-06-14T15:42:03;24.80;78.90
23685;DHT22;12020;51.384;6.908;2023-06-14T15:44:29;24.80;78.40
23685;DHT22;12020;51.384;6.908;2023-06-14T15:46:54;24.80;77.60
23685;DHT22;12020;51.384;6.908;2023-06-14T15:49:20;24.80;78.70
23685;DHT22;12020;51.384;6.908;2023-06-14T15:51:45;24.80;77.90
23685;DHT22;12020;51.384;6.908;2023-06-14T15:54:11;24.80;77.60
23685;DHT22;12020;51.384;6.908;2023-06-14T15:56:40;24.80;78.30
23685;DHT22;12020;51.384;6.908;2023-06-14T15:59:05;24.80;78.70
23685;DHT22;12020;51.384;6.908;2023-06-14T16:01:32;24.70;77.80
23685;DHT22;12020;51.384;6.908;2023-06-14T16:03:58;24.70;79.30
23685;DHT22;12020;51.384;6.908;2023-06-14T16:06:24;24.70;78.40
23685;DHT22;12020;51.384;6.908;2023-06-14T16:08:50;24.70;77.60
23685;DHT22;12020;51.384;6.908;2023-06-14T16:11:18;24.60;78.10
23685;DHT22;12020;51.384;6.908;2023-06-14T16:13:45;24.60;76.70
23685;DHT22;12020;51.384;6.908;2023-06-14T16:16:10;24.50;77.40
23685;DHT22;12020;51.384;6.908;2023-06-14T16:18:36;24.50;78.30
23685;DHT22;12020;51.384;6.908;2023-06-14T16:21:02;24.50;77.50
23685;DHT22;12020;51.384;6.908;2023-06-14T16:23:31;24.50;78.10
23685;DHT22;12020;51.384;6.908;2023-06-14T16:25:57;24.50;78.30
23685;DHT22;12020;51.384;6.908;2023-06-14T16:28:23;24.50;77.50
23685;DHT22;12020;51.384;6.908;2023-06-14T16:30:48;24.50;77.90
23685;DHT22;12020;51.384;6.908;2023-06-14T16:33:14;24.50;78.00
23685;DHT22;12020;51.384;6.908;2023-06-14T16:39:02;24.40;76.70
23685;DHT22;12020;51.384;6.908;2023-06-14T16:41:27;24.40;77.50
23685;DHT22;12020;51.384;6.908;2023-06-14T16:43:54;24.30;76.70
23685;DHT22;12020;51.384;6.908;2023-06-14T16:46:29;24.20;76.50
23685;DHT22;12020;51.384;6.908;2023-06-14T16:48:56;24.30;78.10
23685;DHT22;12020;51.384;6.908;2023-06-14T16:51:22;24.30;78.50
23685;DHT22;12020;51.384;6.908;2023-06-14T16:53:47;24.40;78.30
23685;DHT22;12020;51.384;6.908;2023-06-14T16:56:13;24.30;78.00
23685;DHT22;12020;51.384;6.908;2023-06-14T16:58:40;24.40;78.30
23685;DHT22;12020;51.384;6.908;2023-06-14T17:01:05;24.30;77.30
23685;DHT22;12020;51.384;6.908;2023-06-14T17:03:31;24.30;76.20
23685;DHT22;12020;51.384;6.908;2023-06-14T17:05:58;24.30;76.40
23685;DHT22;12020;51.384;6.908;2023-06-14T17:08:24;24.20;76.80
23685;DHT22;12020;51.384;6.908;2023-06-14T17:10:53;24.30;77.80
23685;DHT22;12020;51.384;6.908;2023-06-14T17:13:20;24.30;77.80
23685;DHT22;12020;51.384;6.908;2023-06-14T17:15:46;24.20;77.20
23685;DHT22;12020;51.384;6.908;2023-06-14T17:18:12;24.20;76.80
23685;DHT22;12020;51.384;6.908;2023-06-14T17:20:38;24.20;76.80
23685;DHT22;12020;51.384;6.908;2023-06-14T17:23:03;24.20;75.90
23685;DHT22;12020;51.384;6.908;2023-06-14T17:25:29;24.20;76.30
23685;DHT22;12020;51.384;6.908;2023-06-14T17:27:55;24.10;75.90
23685;DHT22;12020;51.384;6.908;2023-06-14T17:30:21;24.00;75.70
23685;DHT22;12020;51.384;6.908;2023-06-14T17:32:47;24.00;76.30